createdAt,value
2022-10-19T00:01:03.504Z,12.01
2022-10-19T00:03:31.940Z,11.94
2022-10-19T00:06:00.587Z,12.07
2022-10-19T00:08:28.639Z,12.00
2022-10-19T00:10:57.995Z,12.17
2022-10-19T00:13:25.955Z,12.14
2022-10-19T00:15:53.859Z,12.10
2022-10-19T00:18:30.083Z,12.19
2022-10-19T00:21:04.703Z,12.08
2022-10-19T00:23:32.784Z,12.13
2022-10-19T00:26:02.785Z,12.16
2022-10-19T00:28:31.313Z,12.12
2022-10-19T00:31:04.336Z,12.08
2022-10-19T00:33:32.215Z,11.98
2022-10-19T00:36:00.341Z,11.99
2022-10-19T00:38:28.449Z,11.88
2022-10-19T00:40:56.402Z,11.79
2022-10-19T00:43:27.916Z,11.62
2022-10-19T00:45:55.845Z,11.57
2022-10-19T00:48:26.787Z,11.61
2022-10-19T00:50:56.932Z,11.62
2022-10-19T00:53:28.189Z,11.51
2022-10-19T00:55:58.349Z,11.48
2022-10-19T00:58:28.487Z,11.42
2022-10-19T01:00:56.584Z,11.39
2022-10-19T01:03:24.531Z,11.43
2022-10-19T01:05:52.599Z,11.47
2022-10-19T01:08:21.259Z,11.35
2022-10-19T01:10:55.289Z,11.32
2022-10-19T01:13:43.004Z,11.20
2022-10-19T01:16:18.087Z,11.16
2022-10-19T01:18:51.679Z,11.09
2022-10-19T01:21:28.726Z,11.02
2022-10-19T01:24:30.691Z,10.97
2022-10-19T01:27:36.361Z,10.94
2022-10-19T01:30:12.474Z,10.89
2022-10-19T01:33:05.432Z,10.82
2022-10-19T01:35:39.857Z,10.64
2022-10-19T01:38:22.189Z,10.71
2022-10-19T01:40:58.044Z,10.58
2022-10-19T01:43:38.599Z,10.48
2022-10-19T01:46:14.463Z,10.46
2022-10-19T01:48:51.881Z,10.37
2022-10-19T01:51:24.199Z,10.34
2022-10-19T01:53:55.847Z,10.30
2022-10-19T01:56:27.507Z,10.33
2022-10-19T01:58:57.727Z,10.46
2022-10-19T02:01:31.589Z,10.64
2022-10-19T02:04:01.085Z,10.72
2022-10-19T02:06:29.809Z,10.82
2022-10-19T02:08:58.057Z,10.92
2022-10-19T02:11:26.551Z,10.93
2022-10-19T02:14:01.880Z,11.07
2022-10-19T02:16:36.014Z,11.13
2022-10-19T02:19:08.444Z,11.16
2022-10-19T02:21:36.678Z,11.23
2022-10-19T02:24:04.969Z,11.25
2022-10-19T02:26:33.438Z,11.27
2022-10-19T02:29:01.558Z,11.34
2022-10-19T02:31:29.554Z,11.32
2022-10-19T02:33:58.900Z,11.37
2022-10-19T02:36:26.998Z,11.42
2022-10-19T02:38:55.184Z,11.37
2022-10-19T02:41:28.691Z,11.44
2022-10-19T02:44:02.498Z,11.46
2022-10-19T02:46:37.480Z,11.47
2022-10-19T02:49:09.160Z,11.49
2022-10-19T02:51:38.648Z,11.55
2022-10-19T02:54:07.985Z,11.41
2022-10-19T02:56:36.751Z,11.53
2022-10-19T02:59:05.413Z,11.59
2022-10-19T03:01:33.312Z,11.65
2022-10-19T03:04:01.248Z,11.63
2022-10-19T03:06:30.517Z,11.55
2022-10-19T03:08:58.466Z,11.68
2022-10-19T03:11:27.089Z,11.66
2022-10-19T03:13:55.010Z,11.77
2022-10-19T03:16:22.910Z,11.74
2022-10-19T03:18:51.110Z,11.81
2022-10-19T03:21:20.299Z,11.84
2022-10-19T03:23:49.666Z,11.81
2022-10-19T03:26:18.533Z,11.78
2022-10-19T03:28:46.507Z,11.89
2022-10-19T03:31:14.444Z,11.68
2022-10-19T03:33:42.323Z,11.91
2022-10-19T03:36:18.477Z,11.90
2022-10-19T03:38:46.423Z,11.90
2022-10-19T03:41:15.898Z,11.90
2022-10-19T03:43:43.900Z,11.98
2022-10-19T03:46:11.813Z,11.95
2022-10-19T03:48:39.730Z,11.93
2022-10-19T03:51:10.643Z,11.97
2022-10-19T03:53:39.061Z,11.97
2022-10-19T03:56:09.272Z,11.89
2022-10-19T03:58:40.155Z,11.97
2022-10-19T04:01:10.046Z,11.91
2022-10-19T04:03:38.201Z,11.91
2022-10-19T04:06:08.764Z,11.94
2022-10-19T04:08:37.428Z,11.96
2022-10-19T04:11:10.138Z,11.97
2022-10-19T04:13:39.941Z,11.97
2022-10-19T04:16:08.610Z,11.94
2022-10-19T04:18:36.463Z,11.94
2022-10-19T04:21:06.122Z,11.98
2022-10-19T04:23:36.494Z,12.01
2022-10-19T04:26:06.713Z,12.05
2022-10-19T04:28:35.728Z,12.05
2022-10-19T04:31:06.564Z,11.97
2022-10-19T04:33:35.425Z,12.00
2022-10-19T04:36:06.667Z,12.05
2022-10-19T04:38:35.200Z,12.04
2022-10-19T04:41:04.143Z,11.94
2022-10-19T04:43:32.029Z,12.01
2022-10-19T04:46:05.181Z,12.05
2022-10-19T04:48:33.212Z,12.07
2022-10-19T04:51:01.162Z,12.00
2022-10-19T04:53:29.088Z,12.07
2022-10-19T04:55:57.169Z,11.94
2022-10-19T04:58:25.375Z,12.02
2022-10-19T05:00:53.326Z,12.01
2022-10-19T05:03:22.564Z,12.03
2022-10-19T05:05:50.552Z,12.02
2022-10-19T05:08:18.706Z,12.01
2022-10-19T05:10:47.731Z,11.90
2022-10-19T05:13:15.877Z,12.04
2022-10-19T05:15:43.826Z,12.11
2022-10-19T05:18:11.727Z,12.05
2022-10-19T05:20:41.015Z,12.11
2022-10-19T05:23:08.964Z,12.12
2022-10-19T05:25:36.844Z,12.13
2022-10-19T05:28:04.780Z,12.07
2022-10-19T05:30:33.045Z,12.06
2022-10-19T05:33:01.042Z,12.13
2022-10-19T05:35:28.914Z,12.22
2022-10-19T05:37:58.246Z,12.21
2022-10-19T05:40:26.396Z,12.11
2022-10-19T05:42:54.409Z,12.22
2022-10-19T05:45:22.286Z,12.22
2022-10-19T05:47:50.214Z,12.00
2022-10-19T05:50:18.438Z,12.24
2022-10-19T05:52:46.297Z,12.30
2022-10-19T05:55:15.618Z,12.33
2022-10-19T05:57:43.514Z,12.29
2022-10-19T06:00:12.910Z,12.25
2022-10-19T06:02:40.747Z,12.35
2022-10-19T06:05:09.151Z,12.35
2022-10-19T06:07:37.176Z,12.38
2022-10-19T06:10:05.823Z,12.36
2022-10-19T06:12:35.042Z,12.36
2022-10-19T06:15:02.995Z,12.40
2022-10-19T06:17:30.967Z,12.48
2022-10-19T06:19:58.994Z,12.49
2022-10-19T06:22:26.858Z,12.53
2022-10-19T06:24:55.370Z,12.57
2022-10-19T06:27:23.476Z,12.50
2022-10-19T06:29:52.838Z,12.52
2022-10-19T06:32:20.968Z,12.57
2022-10-19T06:34:50.832Z,12.55
2022-10-19T06:37:20.995Z,12.57
2022-10-19T06:39:48.908Z,12.63
2022-10-19T06:42:16.880Z,12.63
2022-10-19T06:44:45.691Z,12.64
2022-10-19T06:47:15.030Z,12.72
2022-10-19T06:49:43.020Z,12.60
2022-10-19T06:52:10.937Z,12.70
2022-10-19T06:54:38.929Z,12.75
2022-10-19T06:57:08.018Z,12.78
2022-10-19T06:59:35.980Z,12.82
2022-10-19T07:02:06.998Z,12.90
2022-10-19T07:04:36.334Z,12.88
2022-10-19T07:07:04.503Z,13.01
2022-10-19T07:09:32.476Z,13.06
2022-10-19T07:12:00.448Z,13.03
2022-10-19T07:14:28.554Z,13.07
2022-10-19T07:16:56.701Z,13.07
2022-10-19T07:19:27.298Z,13.22
2022-10-19T07:21:56.634Z,13.18
2022-10-19T07:24:24.865Z,13.22
2022-10-19T07:26:52.803Z,13.08
2022-10-19T07:29:20.768Z,13.18
2022-10-19T07:31:48.942Z,13.25
2022-10-19T07:34:17.170Z,13.44
2022-10-19T07:36:48.067Z,13.45
2022-10-19T07:39:18.086Z,13.48
2022-10-19T07:41:46.430Z,13.54
2022-10-19T07:44:16.049Z,13.53
2022-10-19T07:46:44.425Z,13.52
2022-10-19T07:49:18.865Z,13.47
2022-10-19T07:51:47.459Z,13.48
2022-10-19T07:54:16.732Z,13.46
2022-10-19T07:56:45.033Z,13.43
2022-10-19T07:59:14.776Z,13.43
2022-10-19T08:01:43.873Z,13.43
2022-10-19T08:06:59.723Z,13.51
2022-10-19T08:12:17.039Z,13.46
2022-10-19T08:14:44.949Z,13.48
2022-10-19T08:17:16.644Z,13.42
2022-10-19T08:19:44.895Z,13.57
2022-10-19T08:22:13.119Z,13.58
2022-10-19T08:24:42.497Z,13.50
2022-10-19T08:27:10.447Z,13.60
2022-10-19T08:29:38.427Z,13.62
2022-10-19T08:32:06.691Z,13.71
2022-10-19T08:34:34.660Z,13.78
2022-10-19T08:37:10.173Z,13.85
2022-10-19T08:39:49.526Z,13.80
2022-10-19T08:42:20.996Z,13.87
2022-10-19T08:45:22.251Z,13.98
2022-10-19T08:48:02.997Z,14.01
2022-10-19T08:50:38.799Z,13.84
2022-10-19T08:53:11.794Z,14.02
2022-10-19T08:55:58.657Z,14.04
2022-10-19T08:58:50.926Z,14.15
2022-10-19T09:01:33.833Z,13.94
2022-10-19T09:04:11.255Z,14.12
2022-10-19T09:06:49.702Z,14.11
2022-10-19T09:09:20.541Z,14.16
2022-10-19T09:11:52.654Z,14.26
2022-10-19T09:14:26.861Z,14.43
2022-10-19T09:16:59.560Z,14.57
2022-10-19T09:19:31.885Z,14.37
2022-10-19T09:22:04.339Z,14.52
2022-10-19T09:24:41.241Z,14.67
2022-10-19T09:27:19.851Z,14.62
2022-10-19T09:29:55.298Z,14.84
2022-10-19T09:32:26.698Z,14.80
2022-10-19T09:35:01.239Z,14.66
2022-10-19T09:40:03.297Z,14.68
2022-10-19T09:42:36.752Z,14.57
2022-10-19T09:45:17.485Z,14.80
2022-10-19T09:47:49.568Z,14.80
2022-10-19T09:50:21.099Z,14.91
2022-10-19T09:52:50.331Z,14.92
2022-10-19T09:55:27.787Z,14.85
2022-10-19T09:58:17.070Z,14.94
2022-10-19T10:00:46.985Z,14.79
2022-10-19T10:03:27.625Z,14.87
2022-10-19T10:05:57.757Z,14.90
2022-10-19T10:08:35.764Z,14.85
2022-10-19T10:11:11.431Z,14.86
2022-10-19T10:13:43.262Z,14.87
2022-10-19T10:16:15.167Z,15.04
2022-10-19T10:21:48.994Z,15.00
2022-10-19T10:24:21.424Z,15.04
2022-10-19T10:26:51.461Z,15.25
2022-10-19T10:29:23.204Z,15.28
2022-10-19T10:31:54.406Z,15.49
2022-10-19T10:34:50.215Z,15.26
2022-10-19T10:37:23.226Z,15.38
2022-10-19T10:39:53.746Z,15.41
2022-10-19T10:42:28.411Z,15.39
2022-10-19T10:44:58.474Z,15.41
2022-10-19T10:47:27.480Z,15.32
2022-10-19T10:49:59.079Z,15.20
2022-10-19T10:52:31.155Z,15.25
2022-10-19T10:55:02.079Z,15.46
2022-10-19T10:57:34.376Z,15.29
2022-10-19T11:00:11.253Z,15.38
2022-10-19T11:02:48.055Z,15.51
2022-10-19T11:05:20.638Z,15.67
2022-10-19T11:07:54.476Z,15.83
2022-10-19T11:10:27.632Z,15.79
2022-10-19T11:13:06.385Z,15.64
2022-10-19T11:15:40.442Z,15.87
2022-10-19T11:18:19.783Z,16.23
2022-10-19T11:20:52.330Z,16.33
2022-10-19T11:23:28.041Z,16.71
2022-10-19T11:26:07.625Z,16.90
2022-10-19T11:28:53.155Z,17.07
2022-10-19T11:31:33.904Z,16.73
2022-10-19T11:34:11.790Z,16.58
2022-10-19T11:36:51.157Z,18.01
2022-10-19T11:39:28.142Z,22.20
2022-10-19T11:42:15.351Z,22.84
2022-10-19T11:44:59.888Z,25.65
2022-10-19T11:47:50.674Z,25.49
2022-10-19T11:50:32.094Z,24.91
2022-10-19T11:53:10.611Z,21.31
2022-10-19T11:55:45.043Z,19.47
2022-10-19T11:58:34.680Z,19.04
2022-10-19T12:01:13.569Z,18.74
2022-10-19T12:04:02.477Z,18.21
2022-10-19T12:06:36.475Z,17.55
2022-10-19T12:09:27.322Z,16.89
2022-10-19T12:12:07.267Z,16.54
2022-10-19T12:14:42.066Z,16.61
2022-10-19T12:17:19.585Z,16.01
2022-10-19T12:19:52.925Z,16.17
2022-10-19T12:22:25.334Z,16.28
2022-10-19T12:24:56.353Z,16.29
2022-10-19T12:27:30.925Z,16.32
2022-10-19T12:30:04.368Z,16.17
2022-10-19T12:32:40.864Z,16.24
2022-10-19T12:35:24.804Z,16.54
2022-10-19T12:37:58.478Z,16.64
2022-10-19T12:40:33.071Z,16.52
2022-10-19T12:43:04.552Z,16.39
2022-10-19T12:45:40.501Z,16.15
2022-10-19T12:48:20.578Z,16.10
2022-10-19T12:51:15.152Z,16.02
2022-10-19T12:53:47.756Z,16.35
2022-10-19T12:56:24.054Z,16.00
2022-10-19T12:58:59.713Z,15.70
2022-10-19T13:01:29.931Z,15.66
2022-10-19T13:04:10.786Z,15.38
2022-10-19T13:06:44.471Z,15.36
2022-10-19T13:09:25.271Z,15.45
2022-10-19T13:12:29.056Z,15.40
2022-10-19T13:14:59.030Z,15.08
2022-10-19T13:17:43.806Z,14.82
2022-10-19T13:20:52.688Z,14.57
2022-10-19T13:23:42.865Z,14.61
2022-10-19T13:26:33.161Z,14.68
2022-10-19T13:29:01.694Z,14.61
2022-10-19T13:31:31.784Z,14.46
2022-10-19T13:34:00.198Z,14.40
2022-10-19T13:36:28.578Z,14.44
2022-10-19T13:39:17.052Z,14.18
2022-10-19T13:41:54.513Z,14.18
2022-10-19T13:44:33.807Z,14.27
2022-10-19T13:50:16.791Z,14.32
2022-10-19T13:53:08.979Z,14.31
2022-10-19T13:56:02.830Z,14.31
2022-10-19T13:59:07.433Z,14.20
2022-10-19T14:01:49.410Z,13.93
2022-10-19T14:04:35.891Z,13.94
2022-10-19T14:07:11.582Z,13.91
2022-10-19T14:10:01.363Z,13.94
2022-10-19T14:12:34.802Z,14.01
2022-10-19T14:15:15.196Z,14.22
2022-10-19T14:17:43.499Z,14.22
2022-10-19T14:20:27.028Z,14.23
2022-10-19T14:22:55.093Z,14.17
2022-10-19T14:25:24.759Z,14.13
2022-10-19T14:28:02.551Z,14.02
2022-10-19T14:30:32.922Z,13.97
2022-10-19T14:33:14.371Z,13.91
2022-10-19T14:35:44.936Z,13.85
2022-10-19T14:38:21.328Z,13.87
2022-10-19T14:40:49.439Z,13.86
2022-10-19T14:43:27.353Z,13.72
2022-10-19T14:46:15.200Z,13.62
2022-10-19T14:48:45.430Z,13.60
2022-10-19T14:51:29.250Z,13.54
2022-10-19T14:54:02.108Z,13.54
2022-10-19T14:56:34.776Z,13.39
2022-10-19T14:59:08.165Z,13.45
2022-10-19T15:01:36.398Z,13.42
2022-10-19T15:04:05.214Z,13.43
2022-10-19T15:06:35.704Z,13.31
2022-10-19T15:09:12.080Z,13.36
2022-10-19T15:11:49.842Z,13.24
2022-10-19T15:14:23.356Z,13.17
2022-10-19T15:16:54.504Z,13.09
2022-10-19T15:19:29.722Z,13.07
2022-10-19T15:22:18.383Z,13.02
2022-10-19T15:24:58.581Z,12.97
2022-10-19T15:27:32.704Z,12.91
2022-10-19T15:30:05.054Z,12.88
2022-10-19T15:32:36.491Z,12.88
2022-10-19T15:35:12.937Z,12.78
2022-10-19T15:37:44.101Z,12.64
2022-10-19T15:40:14.503Z,12.76
2022-10-19T15:42:44.494Z,12.72
2022-10-19T15:45:33.740Z,12.51
2022-10-19T15:48:28.295Z,12.68
2022-10-19T15:50:57.619Z,12.57
2022-10-19T15:53:28.334Z,12.45
2022-10-19T15:55:56.552Z,12.32
2022-10-19T15:58:25.222Z,12.21
2022-10-19T16:00:54.536Z,12.19
2022-10-19T16:03:23.118Z,12.11
2022-10-19T16:05:51.080Z,12.07
2022-10-19T16:08:19.076Z,12.05
2022-10-19T16:10:47.057Z,11.93
2022-10-19T16:13:14.965Z,11.88
2022-10-19T16:15:49.950Z,11.83
2022-10-19T16:18:26.038Z,11.76
2022-10-19T16:20:54.009Z,11.68
2022-10-19T16:23:22.017Z,11.59
2022-10-19T16:25:49.995Z,11.59
2022-10-19T16:28:18.162Z,11.49
2022-10-19T16:30:46.237Z,11.38
2022-10-19T16:33:14.239Z,11.41
2022-10-19T16:35:43.579Z,11.30
2022-10-19T16:38:11.769Z,11.21
2022-10-19T16:40:39.783Z,11.21
2022-10-19T16:43:08.507Z,11.17
2022-10-19T16:45:36.572Z,11.06
2022-10-19T16:48:04.672Z,10.99
2022-10-19T16:50:32.676Z,10.94
2022-10-19T16:53:07.160Z,10.91
2022-10-19T16:55:35.172Z,10.90
2022-10-19T16:58:03.195Z,10.80
2022-10-19T17:00:31.153Z,10.78
2022-10-19T17:02:59.144Z,10.64
2022-10-19T17:05:27.042Z,10.62
2022-10-19T17:07:55.059Z,10.47
2022-10-19T17:10:24.399Z,10.53
2022-10-19T17:12:52.423Z,10.52
2022-10-19T17:18:08.612Z,10.39
2022-10-19T17:20:36.655Z,10.32
2022-10-19T17:23:04.595Z,10.28
2022-10-19T17:25:34.004Z,10.24
2022-10-19T17:28:01.934Z,10.19
2022-10-19T17:30:29.891Z,10.16
2022-10-19T17:32:57.941Z,10.17
2022-10-19T17:35:25.932Z,10.20
2022-10-19T17:37:53.929Z,10.15
2022-10-19T17:40:21.890Z,10.15
2022-10-19T17:42:51.215Z,10.09
2022-10-19T17:45:19.235Z,10.09
2022-10-19T17:47:47.171Z,10.00
2022-10-19T17:50:15.189Z,9.99
2022-10-19T17:52:43.108Z,9.99
2022-10-19T17:55:13.063Z,9.95
2022-10-19T17:57:41.662Z,9.94
2022-10-19T18:00:11.988Z,9.87
2022-10-19T18:02:45.598Z,9.93
2022-10-19T18:05:13.643Z,9.94
2022-10-19T18:07:44.220Z,9.84
2022-10-19T18:10:12.287Z,9.82
2022-10-19T18:12:40.450Z,9.84
2022-10-19T18:15:09.427Z,9.82
2022-10-19T18:17:39.164Z,9.78
2022-10-19T18:20:08.778Z,9.66
2022-10-19T18:22:36.796Z,9.66
2022-10-19T18:25:05.283Z,9.64
2022-10-19T18:27:33.852Z,9.72
2022-10-19T18:30:06.558Z,9.69
2022-10-19T18:32:39.036Z,9.73
2022-10-19T18:35:08.869Z,9.74
2022-10-19T18:37:36.931Z,9.76
2022-10-19T18:40:05.460Z,9.74
2022-10-19T18:42:33.736Z,9.70
2022-10-19T18:45:03.254Z,9.67
2022-10-19T18:47:32.024Z,9.75
2022-10-19T18:50:01.414Z,9.73
2022-10-19T18:52:29.821Z,9.68
2022-10-19T18:54:57.765Z,9.63
2022-10-19T18:57:30.817Z,9.63
2022-10-19T18:59:59.769Z,9.60
2022-10-19T19:02:34.733Z,9.57
2022-10-19T19:05:04.964Z,9.55
2022-10-19T19:07:33.014Z,9.51
2022-10-19T19:10:00.948Z,9.54
2022-10-19T19:12:31.022Z,9.48
2022-10-19T19:14:59.008Z,9.42
2022-10-19T19:17:27.022Z,9.42
2022-10-19T19:19:55.017Z,9.38
2022-10-19T19:22:26.091Z,9.39
2022-10-19T19:24:54.274Z,9.42
2022-10-19T19:27:27.203Z,9.31
2022-10-19T19:30:00.554Z,9.32
2022-10-19T19:32:28.601Z,9.24
2022-10-19T19:34:56.553Z,9.11
2022-10-19T19:37:25.922Z,9.18
2022-10-19T19:39:53.814Z,9.18
2022-10-19T19:42:25.681Z,9.16
2022-10-19T19:44:55.838Z,9.22
2022-10-19T19:47:23.858Z,9.22
2022-10-19T19:49:51.820Z,9.17
2022-10-19T19:52:19.785Z,9.18
2022-10-19T19:54:49.220Z,9.08
2022-10-19T19:57:17.933Z,9.18
2022-10-19T19:59:45.996Z,9.03
2022-10-19T20:02:17.816Z,9.10
2022-10-19T20:04:45.835Z,9.17
2022-10-19T20:07:13.846Z,9.13
2022-10-19T20:09:41.801Z,9.11
2022-10-19T20:12:13.644Z,9.06
2022-10-19T20:14:41.663Z,9.03
2022-10-19T20:17:09.611Z,8.99
2022-10-19T20:19:37.792Z,9.00
2022-10-19T20:22:06.256Z,8.96
2022-10-19T20:24:37.658Z,8.84
2022-10-19T20:27:05.874Z,8.84
2022-10-19T20:29:35.267Z,8.82
2022-10-19T20:32:03.179Z,8.84
2022-10-19T20:34:31.153Z,8.83
2022-10-19T20:36:59.090Z,8.84
2022-10-19T20:39:27.067Z,8.79
2022-10-19T20:41:55.123Z,8.69
2022-10-19T20:44:23.089Z,8.72
2022-10-19T20:46:52.327Z,8.70
2022-10-19T20:49:20.231Z,8.70
2022-10-19T20:51:48.591Z,8.65
2022-10-19T20:54:16.483Z,8.68
2022-10-19T20:56:44.445Z,8.64
2022-10-19T20:59:14.411Z,8.72
2022-10-19T21:01:43.475Z,8.77
2022-10-19T21:04:15.101Z,8.75
2022-10-19T21:06:44.446Z,8.78
2022-10-19T21:09:14.324Z,8.69
2022-10-19T21:11:43.572Z,8.85
2022-10-19T21:14:14.556Z,8.82
2022-10-19T21:16:42.850Z,8.76
2022-10-19T21:19:15.149Z,8.76
2022-10-19T21:21:45.040Z,8.80
2022-10-19T21:24:15.071Z,8.77
2022-10-19T21:26:43.452Z,8.74
2022-10-19T21:29:12.606Z,8.64
2022-10-19T21:31:45.120Z,8.61
2022-10-19T21:34:19.665Z,8.62
2022-10-19T21:36:47.986Z,8.58
2022-10-19T21:39:16.628Z,8.60
2022-10-19T21:41:44.613Z,8.56
2022-10-19T21:44:12.704Z,8.52
2022-10-19T21:46:40.773Z,8.43
2022-10-19T21:49:08.724Z,8.43
2022-10-19T21:51:42.568Z,8.41
2022-10-19T21:54:13.836Z,8.36
2022-10-19T21:56:41.813Z,8.34
2022-10-19T21:59:09.713Z,8.35
2022-10-19T22:01:40.357Z,8.29
2022-10-19T22:04:13.098Z,8.28
2022-10-19T22:06:43.023Z,8.11
2022-10-19T22:09:14.986Z,8.09
2022-10-19T22:11:43.348Z,8.13
2022-10-19T22:14:12.506Z,8.10
2022-10-19T22:16:41.168Z,8.10
2022-10-19T22:19:10.026Z,8.10
2022-10-19T22:24:14.999Z,7.97
2022-10-19T22:26:50.778Z,7.94
2022-10-19T22:29:18.904Z,7.83
2022-10-19T22:31:46.908Z,7.81
2022-10-19T22:34:17.438Z,7.74
2022-10-19T22:36:45.837Z,7.87
2022-10-19T22:39:15.769Z,7.73
2022-10-19T22:41:43.789Z,7.75
2022-10-19T22:44:11.717Z,7.73
2022-10-19T22:46:39.682Z,7.69
2022-10-19T22:51:37.023Z,7.72
2022-10-19T22:54:05.749Z,7.66
2022-10-19T22:56:35.032Z,7.66
2022-10-19T22:59:04.834Z,7.75
2022-10-19T23:01:33.419Z,7.78
2022-10-19T23:04:01.409Z,7.75
2022-10-19T23:06:29.313Z,7.75
2022-10-19T23:08:57.366Z,7.88
2022-10-19T23:11:25.416Z,7.76
2022-10-19T23:13:54.753Z,7.83
2022-10-19T23:16:22.733Z,7.87
2022-10-19T23:18:50.667Z,7.80
2022-10-19T23:21:18.614Z,7.72
2022-10-19T23:23:46.604Z,7.79
2022-10-19T23:26:17.547Z,7.81
2022-10-19T23:28:47.383Z,7.75
2022-10-19T23:31:18.365Z,7.72
2022-10-19T23:33:46.397Z,7.69
2022-10-19T23:36:16.429Z,7.70
2022-10-19T23:38:45.376Z,7.60
2022-10-19T23:41:14.421Z,7.54
2022-10-19T23:43:43.571Z,7.43
2022-10-19T23:46:11.799Z,7.35
2022-10-19T23:48:41.923Z,7.28
2022-10-19T23:51:13.184Z,7.23
2022-10-19T23:53:42.982Z,7.22
2022-10-19T23:56:12.977Z,7.15
2022-10-19T23:58:40.977Z,7.06
